createdAt,value
2022-12-05T00:01:42.696Z,63.38
2022-12-05T00:04:15.231Z,64.15
2022-12-05T00:06:44.252Z,63.76
2022-12-05T00:09:13.006Z,63.81
2022-12-05T00:11:42.728Z,63.94
2022-12-05T00:14:11.854Z,63.77
2022-12-05T00:16:40.379Z,63.75
2022-12-05T00:19:09.230Z,64.11
2022-12-05T00:21:37.666Z,63.83
2022-12-05T00:24:56.201Z,64.29
2022-12-05T00:27:23.204Z,63.59
2022-12-05T00:29:50.268Z,63.80
2022-12-05T00:32:17.327Z,64.37
2022-12-05T00:34:44.465Z,63.69
2022-12-05T00:37:11.467Z,63.99
2022-12-05T00:39:41.444Z,64.04
2022-12-05T00:42:08.430Z,64.16
2022-12-05T00:44:35.389Z,63.76
2022-12-05T00:47:02.377Z,63.71
2022-12-05T00:49:29.351Z,63.61
2022-12-05T00:52:16.345Z,64.20
2022-12-05T00:54:43.569Z,64.15
2022-12-05T00:57:10.498Z,64.07
2022-12-05T00:59:37.454Z,64.38
2022-12-05T01:02:04.433Z,63.88
2022-12-05T01:04:31.467Z,63.88
2022-12-05T01:06:58.919Z,63.70
2022-12-05T01:09:26.829Z,63.65
2022-12-05T01:11:54.040Z,63.76
2022-12-05T01:14:23.291Z,64.41
2022-12-05T01:16:53.922Z,64.25
2022-12-05T01:19:23.823Z,64.24
2022-12-05T01:21:51.640Z,64.59
2022-12-05T01:24:20.253Z,64.53
2022-12-05T01:26:47.831Z,64.37
2022-12-05T01:29:18.311Z,64.59
2022-12-05T01:31:45.870Z,64.43
2022-12-05T01:34:15.923Z,63.76
2022-12-05T01:36:43.524Z,64.13
2022-12-05T01:39:12.049Z,64.42
2022-12-05T01:41:45.683Z,64.36
2022-12-05T01:44:12.777Z,64.46
2022-12-05T01:46:51.001Z,63.96
2022-12-05T01:49:28.862Z,64.40
2022-12-05T01:52:01.597Z,64.58
2022-12-05T01:54:30.236Z,64.48
2022-12-05T01:57:02.150Z,63.97
2022-12-05T01:59:34.525Z,64.40
2022-12-05T02:02:02.240Z,64.53
2022-12-05T02:04:29.275Z,64.38
2022-12-05T02:06:58.303Z,64.41
2022-12-05T02:09:25.197Z,64.18
2022-12-05T02:11:57.424Z,64.06
2022-12-05T02:14:27.256Z,64.65
2022-12-05T02:17:03.359Z,64.57
2022-12-05T02:19:51.525Z,63.89
2022-12-05T02:22:41.392Z,64.11
2022-12-05T02:26:18.801Z,63.92
2022-12-05T02:29:11.360Z,63.55
2022-12-05T02:31:57.556Z,63.71
2022-12-05T02:34:24.567Z,64.02
2022-12-05T02:37:02.100Z,64.24
2022-12-05T02:39:54.859Z,64.13
2022-12-05T02:42:51.464Z,64.31
2022-12-05T02:45:21.535Z,63.74
2022-12-05T02:47:52.427Z,64.11
2022-12-05T02:50:25.153Z,63.93
2022-12-05T02:52:56.790Z,64.53
2022-12-05T02:55:27.052Z,64.21
2022-12-05T02:57:58.633Z,63.97
2022-12-05T03:00:25.894Z,64.20
2022-12-05T03:02:58.595Z,63.75
2022-12-05T03:05:51.581Z,64.43
2022-12-05T03:08:23.626Z,64.30
2022-12-05T03:10:53.443Z,64.06
2022-12-05T03:13:30.208Z,63.94
2022-12-05T03:16:03.157Z,64.17
2022-12-05T03:18:35.312Z,64.35
2022-12-05T03:21:22.586Z,64.43
2022-12-05T03:24:01.622Z,63.88
2022-12-05T03:26:34.627Z,63.81
2022-12-05T03:29:52.968Z,64.15
2022-12-05T03:32:28.943Z,63.97
2022-12-05T03:34:56.285Z,64.55
2022-12-05T03:37:58.479Z,64.19
2022-12-05T03:40:40.639Z,64.29
2022-12-05T03:43:23.668Z,64.42
2022-12-05T03:46:01.309Z,64.42
2022-12-05T03:48:36.045Z,64.38
2022-12-05T03:51:07.321Z,63.97
2022-12-05T03:54:14.123Z,64.20
2022-12-05T03:56:46.476Z,64.22
2022-12-05T03:59:36.022Z,64.22
2022-12-05T04:02:11.265Z,64.32
2022-12-05T04:04:47.752Z,64.31
2022-12-05T04:07:16.962Z,64.16
2022-12-05T04:09:59.371Z,63.95
2022-12-05T04:12:30.299Z,64.42
2022-12-05T04:15:06.511Z,64.26
2022-12-05T04:18:09.657Z,64.36
2022-12-05T04:21:00.128Z,63.96
2022-12-05T04:23:28.428Z,64.58
2022-12-05T04:26:17.813Z,64.32
2022-12-05T04:29:11.262Z,64.23
2022-12-05T04:31:44.173Z,64.01
2022-12-05T04:34:14.505Z,64.08
2022-12-05T04:36:57.776Z,64.35
2022-12-05T04:39:37.729Z,64.61
2022-12-05T04:42:08.957Z,64.56
2022-12-05T04:44:46.642Z,64.40
2022-12-05T04:47:18.753Z,64.59
2022-12-05T04:49:52.204Z,64.23
2022-12-05T04:52:22.260Z,64.05
2022-12-05T04:54:49.096Z,64.22
2022-12-05T04:57:50.585Z,63.90
2022-12-05T05:00:17.919Z,64.45
2022-12-05T05:02:56.303Z,64.25
2022-12-05T05:05:23.714Z,64.41
2022-12-05T05:07:53.914Z,64.24
2022-12-05T05:10:33.436Z,64.29
2022-12-05T05:13:05.453Z,64.50
2022-12-05T05:15:32.502Z,64.79
2022-12-05T05:17:59.387Z,64.84
2022-12-05T05:20:27.566Z,64.30
2022-12-05T05:22:56.654Z,64.36
2022-12-05T05:25:24.983Z,63.91
2022-12-05T05:27:53.827Z,64.67
2022-12-05T05:30:23.292Z,64.17
2022-12-05T05:32:50.468Z,64.26
2022-12-05T05:35:17.976Z,64.68
2022-12-05T05:37:46.130Z,64.33
2022-12-05T05:40:21.113Z,64.02
2022-12-05T05:42:50.927Z,64.41
2022-12-05T05:45:18.316Z,64.57
2022-12-05T05:47:50.006Z,64.69
2022-12-05T05:50:21.502Z,64.65
2022-12-05T05:52:49.895Z,64.09
2022-12-05T05:55:17.087Z,64.51
2022-12-05T05:57:44.236Z,64.09
2022-12-05T06:00:12.705Z,64.63
2022-12-05T06:02:45.073Z,64.01
2022-12-05T06:05:12.234Z,64.38
2022-12-05T06:07:39.352Z,64.60
2022-12-05T06:10:16.257Z,64.01
2022-12-05T06:12:43.235Z,64.27
2022-12-05T06:15:10.873Z,64.12
2022-12-05T06:17:40.361Z,64.12
2022-12-05T06:20:08.596Z,64.09
2022-12-05T06:22:35.676Z,64.33
2022-12-05T06:25:02.746Z,64.25
2022-12-05T06:27:33.798Z,63.92
2022-12-05T06:30:01.313Z,63.38
2022-12-05T06:32:33.735Z,63.88
2022-12-05T06:35:01.004Z,63.54
2022-12-05T06:37:28.486Z,63.86
2022-12-05T06:39:55.544Z,63.69
2022-12-05T06:42:22.845Z,63.11
2022-12-05T06:44:49.816Z,63.49
2022-12-05T06:47:19.976Z,63.58
2022-12-05T06:49:47.101Z,63.74
2022-12-05T06:52:14.092Z,63.73
2022-12-05T06:54:47.058Z,63.31
2022-12-05T06:57:19.086Z,63.14
2022-12-05T06:59:46.080Z,63.12
2022-12-05T07:02:14.006Z,63.55
2022-12-05T07:04:41.304Z,63.20
2022-12-05T07:07:09.474Z,63.38
2022-12-05T07:09:54.548Z,63.59
2022-12-05T07:12:24.043Z,63.47
2022-12-05T07:14:51.490Z,63.59
2022-12-05T07:17:19.996Z,63.14
2022-12-05T07:19:51.175Z,63.05
2022-12-05T07:22:19.254Z,63.28
2022-12-05T07:24:49.643Z,63.71
2022-12-05T07:27:20.551Z,63.63
2022-12-05T07:29:51.506Z,62.66
2022-12-05T07:32:18.634Z,63.24
2022-12-05T07:34:46.184Z,62.93
2022-12-05T07:37:14.720Z,63.38
2022-12-05T07:39:41.937Z,63.46
2022-12-05T07:42:09.105Z,63.68
2022-12-05T07:44:36.440Z,63.68
2022-12-05T07:47:03.784Z,63.17
2022-12-05T07:49:35.720Z,63.10
2022-12-05T07:52:02.839Z,62.59
2022-12-05T07:54:33.220Z,63.30
2022-12-05T07:57:00.299Z,63.07
2022-12-05T07:59:27.383Z,62.65
2022-12-05T08:01:57.206Z,62.44
2022-12-05T08:04:24.335Z,62.82
2022-12-05T08:06:51.295Z,62.62
2022-12-05T08:09:18.971Z,62.25
2022-12-05T08:11:51.070Z,62.39
2022-12-05T08:14:19.688Z,62.37
2022-12-05T08:16:46.738Z,62.35
2022-12-05T08:19:14.252Z,62.64
2022-12-05T08:21:44.439Z,62.76
2022-12-05T08:24:11.557Z,62.97
2022-12-05T08:26:39.509Z,61.93
2022-12-05T08:29:11.443Z,61.64
2022-12-05T08:31:47.619Z,61.85
2022-12-05T08:34:16.216Z,62.12
2022-12-05T08:36:43.568Z,62.47
2022-12-05T08:39:15.183Z,62.41
2022-12-05T08:41:46.514Z,61.92
2022-12-05T08:44:18.748Z,61.95
2022-12-05T08:46:49.394Z,62.02
2022-12-05T08:49:17.442Z,61.14
2022-12-05T08:51:49.263Z,61.85
2022-12-05T08:54:16.623Z,61.65
2022-12-05T08:56:43.953Z,61.04
2022-12-05T08:59:11.421Z,61.75
2022-12-05T09:01:39.469Z,61.01
2022-12-05T09:04:07.814Z,60.56
2022-12-05T09:06:39.419Z,60.50
2022-12-05T09:09:11.483Z,60.23
2022-12-05T09:11:49.075Z,60.31
2022-12-05T09:14:16.995Z,60.71
2022-12-05T09:16:47.957Z,60.48
2022-12-05T09:19:25.011Z,60.11
2022-12-05T09:21:52.145Z,60.47
2022-12-05T09:24:20.046Z,60.76
2022-12-05T09:26:49.359Z,61.00
2022-12-05T09:29:18.041Z,60.58
2022-12-05T09:31:47.963Z,60.45
2022-12-05T09:34:15.473Z,60.90
2022-12-05T09:36:43.132Z,60.49
2022-12-05T09:39:13.247Z,60.17
2022-12-05T09:42:08.159Z,59.50
2022-12-05T09:44:53.619Z,60.38
2022-12-05T09:47:34.993Z,59.66
2022-12-05T09:51:01.730Z,59.59
2022-12-05T09:53:49.542Z,59.50
2022-12-05T09:56:31.094Z,60.01
2022-12-05T09:59:00.994Z,60.08
2022-12-05T10:01:42.589Z,59.51
2022-12-05T10:04:12.847Z,60.28
2022-12-05T10:07:07.443Z,59.41
2022-12-05T10:09:52.783Z,59.29
2022-12-05T10:12:44.311Z,59.19
2022-12-05T10:15:31.098Z,59.07
2022-12-05T10:18:35.197Z,58.99
2022-12-05T10:21:51.272Z,59.25
2022-12-05T10:24:33.066Z,59.45
2022-12-05T10:27:06.530Z,59.82
2022-12-05T10:29:33.599Z,59.60
2022-12-05T10:32:52.372Z,58.98
2022-12-05T10:35:27.821Z,59.33
2022-12-05T10:38:04.088Z,59.39
2022-12-05T10:40:38.470Z,59.49
2022-12-05T10:43:12.282Z,60.03
2022-12-05T10:45:48.412Z,59.51
2022-12-05T10:48:18.348Z,59.59
2022-12-05T10:50:48.729Z,59.76
2022-12-05T10:53:21.268Z,59.68
2022-12-05T10:56:28.150Z,59.64
2022-12-05T10:58:38.296Z,59.50
2022-12-05T11:01:14.330Z,59.35
2022-12-05T11:03:43.642Z,59.53
2022-12-05T11:06:19.286Z,58.83
2022-12-05T11:09:09.764Z,58.96
2022-12-05T11:11:37.213Z,59.74
2022-12-05T11:14:07.311Z,59.33
2022-12-05T11:16:39.483Z,59.32
2022-12-05T11:19:22.010Z,58.40
2022-12-05T11:21:50.303Z,59.45
2022-12-05T11:24:29.198Z,59.32
2022-12-05T11:27:20.132Z,59.16
2022-12-05T11:30:00.959Z,58.47
2022-12-05T11:32:34.186Z,59.66
2022-12-05T11:35:13.775Z,58.98
2022-12-05T11:37:47.883Z,59.39
2022-12-05T11:40:30.080Z,58.88
2022-12-05T11:43:25.351Z,58.93
2022-12-05T11:45:57.607Z,59.41
2022-12-05T11:48:43.985Z,59.23
2022-12-05T11:51:31.206Z,59.93
2022-12-05T11:57:51.852Z,59.36
2022-12-05T12:00:25.961Z,59.91
2022-12-05T12:03:32.586Z,59.24
2022-12-05T12:06:24.846Z,58.68
2022-12-05T12:09:06.887Z,60.09
2022-12-05T12:11:43.335Z,59.36
2022-12-05T12:14:29.025Z,58.76
2022-12-05T12:17:02.049Z,59.94
2022-12-05T12:19:37.442Z,59.24
2022-12-05T12:22:24.645Z,58.68
2022-12-05T12:25:25.482Z,59.45
2022-12-05T12:28:29.419Z,59.02
2022-12-05T12:31:30.490Z,59.76
2022-12-05T12:34:28.037Z,59.43
2022-12-05T12:37:22.679Z,59.09
2022-12-05T12:40:01.443Z,59.10
2022-12-05T12:42:38.458Z,60.24
2022-12-05T12:45:26.576Z,59.38
2022-12-05T12:47:56.506Z,59.52
2022-12-05T12:50:43.436Z,59.90
2022-12-05T12:53:16.798Z,59.67
2022-12-05T12:55:52.751Z,60.46
2022-12-05T12:58:34.665Z,59.75
2022-12-05T13:01:09.093Z,59.96
2022-12-05T13:03:51.501Z,60.09
2022-12-05T13:07:11.889Z,59.31
2022-12-05T13:10:02.929Z,59.82
2022-12-05T13:12:38.571Z,60.01
2022-12-05T13:15:14.013Z,60.17
2022-12-05T13:17:44.107Z,59.55
2022-12-05T13:20:40.570Z,60.36
2022-12-05T13:23:12.302Z,59.83
2022-12-05T13:25:40.810Z,60.43
2022-12-05T13:28:42.260Z,60.41
2022-12-05T13:31:14.311Z,60.48
2022-12-05T13:33:48.249Z,60.47
2022-12-05T13:36:39.464Z,60.51
2022-12-05T13:39:41.267Z,60.12
2022-12-05T13:42:24.889Z,59.86
2022-12-05T13:45:08.754Z,60.44
2022-12-05T13:48:00.344Z,59.77
2022-12-05T13:50:33.606Z,60.61
2022-12-05T13:53:10.159Z,60.69
2022-12-05T13:55:53.924Z,60.38
2022-12-05T13:58:21.349Z,60.52
2022-12-05T14:00:53.021Z,59.90
2022-12-05T14:03:25.257Z,59.78
2022-12-05T14:05:57.056Z,60.98
2022-12-05T14:08:37.003Z,60.74
2022-12-05T14:11:05.841Z,60.20
2022-12-05T14:13:33.904Z,60.51
2022-12-05T14:16:30.572Z,60.15
2022-12-05T14:19:34.714Z,59.36
2022-12-05T14:22:24.196Z,59.72
2022-12-05T14:25:04.439Z,60.82
2022-12-05T14:27:41.517Z,60.26
2022-12-05T14:30:34.810Z,60.47
2022-12-05T14:33:03.351Z,60.66
2022-12-05T14:35:43.865Z,60.53
2022-12-05T14:38:34.500Z,60.40
2022-12-05T14:41:26.587Z,60.11
2022-12-05T14:43:56.785Z,60.26
2022-12-05T14:46:32.449Z,59.93
2022-12-05T14:49:48.465Z,59.47
2022-12-05T14:52:20.781Z,60.69
2022-12-05T14:54:53.026Z,60.35
2022-12-05T14:57:21.516Z,60.58
2022-12-05T14:59:57.174Z,60.44
2022-12-05T15:02:29.850Z,60.20
2022-12-05T15:05:31.877Z,59.99
2022-12-05T15:08:05.080Z,60.63
2022-12-05T15:10:41.500Z,59.81
2022-12-05T15:13:15.018Z,59.79
2022-12-05T15:16:08.537Z,59.90
2022-12-05T15:18:40.299Z,60.82
2022-12-05T15:21:25.769Z,59.62
2022-12-05T15:23:55.540Z,60.37
2022-12-05T15:26:46.139Z,59.83
2022-12-05T15:29:20.993Z,60.88
2022-12-05T15:31:56.246Z,60.17
2022-12-05T15:34:45.711Z,60.58
2022-12-05T15:37:18.577Z,59.90
2022-12-05T15:40:14.356Z,60.30
2022-12-05T15:42:44.843Z,60.03
2022-12-05T15:45:14.806Z,60.76
2022-12-05T15:47:46.638Z,60.52
2022-12-05T15:50:39.285Z,60.40
2022-12-05T15:53:27.434Z,60.49
2022-12-05T15:56:09.240Z,59.80
2022-12-05T15:58:42.786Z,60.82
2022-12-05T16:01:16.759Z,60.55
2022-12-05T16:03:49.746Z,60.25
2022-12-05T16:06:43.570Z,60.08
2022-12-05T16:09:17.433Z,60.94
2022-12-05T16:11:53.281Z,60.02
2022-12-05T16:14:51.319Z,61.11
2022-12-05T16:17:15.974Z,60.60
2022-12-05T16:19:43.749Z,60.58
2022-12-05T16:22:16.665Z,60.83
2022-12-05T16:24:45.852Z,60.83
2022-12-05T16:27:16.139Z,61.33
2022-12-05T16:29:45.240Z,61.01
2022-12-05T16:32:23.626Z,60.30
2022-12-05T16:34:51.625Z,60.83
2022-12-05T16:37:37.238Z,60.25
2022-12-05T16:40:04.547Z,60.14
2022-12-05T16:42:31.662Z,61.01
2022-12-05T16:45:03.405Z,60.67
2022-12-05T16:47:42.161Z,60.68
2022-12-05T16:50:26.121Z,60.74
2022-12-05T16:53:04.441Z,61.30
2022-12-05T16:55:38.532Z,60.62
2022-12-05T16:58:06.314Z,60.71
2022-12-05T17:00:33.769Z,61.14
2022-12-05T17:03:25.926Z,61.04
2022-12-05T17:05:48.229Z,60.39
2022-12-05T17:08:15.368Z,61.21
2022-12-05T17:10:43.731Z,60.86
2022-12-05T17:13:15.554Z,61.25
2022-12-05T17:15:45.729Z,60.81
2022-12-05T17:18:26.529Z,61.10
2022-12-05T17:20:57.389Z,61.31
2022-12-05T17:23:27.987Z,61.40
2022-12-05T17:25:57.161Z,60.33
2022-12-05T17:28:25.318Z,61.12
2022-12-05T17:30:52.669Z,60.37
2022-12-05T17:33:22.470Z,61.43
2022-12-05T17:35:51.145Z,60.73
2022-12-05T17:38:19.531Z,60.62
2022-12-05T17:40:47.222Z,61.08
2022-12-05T17:43:19.922Z,61.24
2022-12-05T17:45:54.786Z,61.12
2022-12-05T17:48:22.035Z,60.95
2022-12-05T17:50:49.936Z,61.04
2022-12-05T17:53:19.607Z,61.32
2022-12-05T17:55:48.917Z,61.48
2022-12-05T17:58:17.394Z,61.25
2022-12-05T18:00:45.653Z,61.02
2022-12-05T18:03:15.376Z,60.87
2022-12-05T18:05:42.573Z,60.37
2022-12-05T18:08:10.032Z,61.25
2022-12-05T18:10:37.338Z,60.81
2022-12-05T18:13:11.091Z,61.40
2022-12-05T18:15:43.069Z,60.59
2022-12-05T18:18:16.102Z,60.93
2022-12-05T18:20:43.931Z,61.67
2022-12-05T18:23:11.194Z,61.37
2022-12-05T18:25:40.241Z,61.54
2022-12-05T18:28:07.745Z,61.25
2022-12-05T18:30:34.759Z,60.88
2022-12-05T18:33:01.826Z,60.87
2022-12-05T18:35:41.138Z,61.05
2022-12-05T18:38:11.905Z,60.88
2022-12-05T18:40:39.300Z,61.63
2022-12-05T18:43:06.326Z,61.37
2022-12-05T18:45:33.331Z,61.80
2022-12-05T18:48:23.322Z,61.18
2022-12-05T18:50:47.329Z,61.30
2022-12-05T18:53:14.401Z,61.17
2022-12-05T18:58:29.290Z,61.26
2022-12-05T19:01:13.463Z,61.71
2022-12-05T19:03:41.184Z,61.33
2022-12-05T19:06:17.228Z,61.47
2022-12-05T19:08:45.448Z,60.76
2022-12-05T19:11:15.726Z,60.91
2022-12-05T19:13:43.949Z,61.54
2022-12-05T19:16:19.401Z,61.44
2022-12-05T19:18:48.158Z,60.99
2022-12-05T19:21:25.741Z,60.98
2022-12-05T19:23:54.221Z,60.86
2022-12-05T19:26:24.016Z,61.87
2022-12-05T19:28:51.335Z,61.16
2022-12-05T19:31:21.568Z,61.43
2022-12-05T19:33:54.591Z,61.71
2022-12-05T19:36:35.663Z,61.23
2022-12-05T19:39:09.320Z,61.66
2022-12-05T19:41:36.716Z,61.70
2022-12-05T19:44:04.225Z,61.58
2022-12-05T19:46:33.298Z,60.92
2022-12-05T19:49:03.863Z,61.22
2022-12-05T19:51:34.081Z,61.96
2022-12-05T19:54:04.014Z,61.55
2022-12-05T19:56:34.387Z,61.66
2022-12-05T19:59:10.054Z,61.38
2022-12-05T20:01:40.834Z,61.37
2022-12-05T20:04:11.198Z,61.29
2022-12-05T20:07:02.232Z,61.29
2022-12-05T20:09:29.827Z,61.28
2022-12-05T20:12:04.182Z,61.38
2022-12-05T20:14:41.299Z,61.38
2022-12-05T20:17:12.923Z,61.17
2022-12-05T20:19:40.050Z,61.66
2022-12-05T20:22:07.472Z,62.21
2022-12-05T20:24:43.615Z,61.59
2022-12-05T20:27:11.106Z,62.15
2022-12-05T20:29:47.971Z,61.55
2022-12-05T20:32:18.316Z,62.10
2022-12-05T20:34:55.839Z,61.33
2022-12-05T20:37:25.222Z,61.74
2022-12-05T20:39:56.217Z,62.01
2022-12-05T20:42:26.129Z,62.17
2022-12-05T20:44:53.436Z,61.49
2022-12-05T20:47:20.543Z,61.36
2022-12-05T20:49:47.736Z,61.67
2022-12-05T20:52:14.942Z,61.81
2022-12-05T20:54:45.245Z,61.92
2022-12-05T20:57:13.280Z,61.49
2022-12-05T20:59:43.084Z,62.00
2022-12-05T21:02:10.561Z,62.00
2022-12-05T21:04:40.978Z,61.59
2022-12-05T21:07:08.021Z,61.43
2022-12-05T21:09:38.746Z,61.82
2022-12-05T21:12:11.646Z,62.04
2022-12-05T21:14:39.610Z,62.02
2022-12-05T21:17:13.898Z,61.42
2022-12-05T21:19:40.965Z,61.67
2022-12-05T21:22:10.002Z,61.46
2022-12-05T21:24:40.074Z,62.05
2022-12-05T21:27:07.420Z,61.84
2022-12-05T21:29:34.875Z,61.65
2022-12-05T21:32:01.898Z,62.18
2022-12-05T21:34:28.864Z,61.61
2022-12-05T21:36:55.896Z,61.96
2022-12-05T21:39:22.818Z,62.01
2022-12-05T21:41:50.927Z,61.25
2022-12-05T21:44:20.075Z,61.53
2022-12-05T21:46:47.158Z,61.84
2022-12-05T21:49:14.345Z,61.77
2022-12-05T21:51:41.317Z,62.03
2022-12-05T21:54:08.345Z,61.55
2022-12-05T21:56:35.245Z,62.03
2022-12-05T21:59:02.213Z,61.67
2022-12-05T22:01:29.327Z,61.74
2022-12-05T22:04:01.544Z,61.66
2022-12-05T22:06:35.212Z,62.18
2022-12-05T22:09:02.554Z,61.87
2022-12-05T22:11:30.127Z,61.44
2022-12-05T22:13:57.202Z,61.89
2022-12-05T22:16:30.662Z,62.21
2022-12-05T22:18:59.252Z,62.00
2022-12-05T22:21:28.026Z,61.39
2022-12-05T22:23:55.224Z,61.66
2022-12-05T22:26:24.610Z,61.86
2022-12-05T22:28:53.259Z,61.53
2022-12-05T22:31:21.052Z,61.78
2022-12-05T22:33:48.879Z,61.41
2022-12-05T22:36:17.742Z,61.56
2022-12-05T22:38:47.446Z,61.62
2022-12-05T22:41:20.277Z,61.85
2022-12-05T22:43:48.844Z,61.68
2022-12-05T22:46:18.449Z,61.82
2022-12-05T22:48:47.092Z,62.17
2022-12-05T22:51:15.517Z,61.58
2022-12-05T22:53:42.616Z,61.57
2022-12-05T22:56:15.889Z,62.33
2022-12-05T22:58:43.995Z,61.98
2022-12-05T23:01:19.895Z,62.08
2022-12-05T23:03:48.619Z,61.50
2022-12-05T23:06:18.186Z,61.46
2022-12-05T23:08:48.041Z,61.65
2022-12-05T23:11:16.664Z,62.01
2022-12-05T23:13:44.679Z,61.67
2022-12-05T23:16:15.022Z,61.49
2022-12-05T23:18:49.309Z,61.24
2022-12-05T23:21:25.452Z,61.55
2022-12-05T23:23:55.817Z,61.75
2022-12-05T23:26:24.937Z,62.30
2022-12-05T23:28:52.478Z,61.83
2022-12-05T23:31:19.732Z,61.46
2022-12-05T23:33:50.723Z,61.91
2022-12-05T23:36:19.056Z,61.67
2022-12-05T23:38:47.074Z,62.19
2022-12-05T23:41:17.770Z,61.13
2022-12-05T23:43:45.445Z,61.80
2022-12-05T23:46:15.417Z,61.89
2022-12-05T23:48:45.968Z,61.93
2022-12-05T23:51:18.178Z,61.69
2022-12-05T23:53:47.453Z,61.74
2022-12-05T23:56:18.331Z,61.47
2022-12-05T23:58:45.815Z,62.35
